Time;durP1;ratioP1;P1;durP2;ratioP2;P2;SDS_P1;SDS_P2;PMS_P1;PMS_P2;Temp;Humidity;BMP_temperature;BMP_pressure;BME280_temperature;BME280_humidity;BME280_pressure;Samples;Min_cycle;Max_cycle;Signal;HPM_P1;HPM_P2
2024/01/14 00:00:55;;;;;;;15.80;5.53;;;6.30;99.90;;;;;;5049330;28;20392;-74
2024/01/14 00:03:21;;;;;;;12.63;4.68;;;6.30;99.90;;;;;;5058779;28;20321;-74
2024/01/14 00:05:46;;;;;;;9.50;4.68;;;6.30;99.90;;;;;;5054764;28;20519;-74
2024/01/14 00:08:12;;;;;;;8.20;4.20;;;6.30;99.90;;;;;;5055994;28;20021;-74
2024/01/14 00:10:37;;;;;;;13.80;4.20;;;6.20;99.90;;;;;;5067740;28;20068;-74
2024/01/14 00:13:03;;;;;;;10.23;4.25;;;6.20;99.90;;;;;;5057431;28;20406;-74
2024/01/14 00:15:28;;;;;;;7.60;3.92;;;6.20;99.90;;;;;;5062030;28;20051;-74
2024/01/14 00:17:54;;;;;;;15.05;4.50;;;6.20;99.90;;;;;;5055317;28;20041;-74
2024/01/14 00:20:20;;;;;;;9.63;4.47;;;6.20;99.90;;;;;;5050032;28;20021;-74
2024/01/14 00:22:45;;;;;;;11.68;4.70;;;6.10;99.90;;;;;;5059763;28;20032;-75
2024/01/14 00:25:11;;;;;;;15.07;5.45;;;6.10;99.90;;;;;;5052163;28;20013;-74
2024/01/14 00:27:38;;;;;;;12.18;5.00;;;6.10;99.90;;;;;;5057920;28;20017;-75
2024/01/14 00:30:04;;;;;;;13.60;5.18;;;6.10;99.90;;;;;;5048218;28;20100;-75
2024/01/14 00:32:30;;;;;;;12.60;5.07;;;6.10;99.90;;;;;;5061002;28;20040;-74
2024/01/14 00:34:55;;;;;;;13.27;5.00;;;6.10;99.90;;;;;;5055010;28;20417;-75
2024/01/14 00:37:21;;;;;;;15.18;5.10;;;6.10;99.90;;;;;;5058099;28;20021;-75
2024/01/14 00:39:46;;;;;;;16.63;5.32;;;6.10;99.90;;;;;;5053460;28;20013;-74
2024/01/14 00:42:12;;;;;;;14.50;5.40;;;6.20;99.90;;;;;;5053775;28;20071;-74
2024/01/14 00:44:41;;;;;;;12.82;5.30;;;6.20;99.90;;;;;;5056593;28;20021;-75
2024/01/14 00:47:07;;;;;;;13.45;5.47;;;6.20;99.90;;;;;;5053775;28;20079;-74
2024/01/14 00:49:32;;;;;;;13.63;5.38;;;6.20;99.90;;;;;;5060953;28;20396;-74
2024/01/14 00:51:58;;;;;;;17.10;5.80;;;6.20;99.90;;;;;;5051861;28;20097;-74
2024/01/14 00:54:23;;;;;;;14.18;5.85;;;6.20;99.90;;;;;;5056423;28;20017;-74
2024/01/14 00:56:49;;;;;;;13.73;5.95;;;6.20;99.90;;;;;;5059646;28;20033;-74
2024/01/14 00:59:14;;;;;;;19.77;5.40;;;6.20;99.90;;;;;;5059606;28;20029;-74
2024/01/14 01:01:40;;;;;;;19.73;6.00;;;6.20;99.90;;;;;;5065445;28;20048;-74
2024/01/14 01:04:06;;;;;;;13.98;5.78;;;6.20;99.90;;;;;;5059643;28;20024;-75
2024/01/14 01:06:31;;;;;;;15.23;5.93;;;6.20;99.90;;;;;;5070136;28;20035;-74
2024/01/14 01:08:57;;;;;;;17.38;6.15;;;6.20;99.90;;;;;;5061231;28;20047;-74
2024/01/14 01:11:22;;;;;;;20.92;5.72;;;6.20;99.90;;;;;;5058914;28;20017;-74
2024/01/14 01:13:48;;;;;;;15.43;5.88;;;6.20;99.90;;;;;;5064358;28;20021;-74
2024/01/14 01:16:13;;;;;;;13.55;5.72;;;6.10;99.90;;;;;;5072181;28;20424;-75
2024/01/14 01:18:39;;;;;;;14.73;5.57;;;6.10;99.90;;;;;;5055988;28;20036;-75
2024/01/14 01:21:06;;;;;;;17.02;6.22;;;6.10;99.90;;;;;;5058233;28;20025;-75
2024/01/14 01:23:31;;;;;;;18.23;6.00;;;6.10;99.90;;;;;;5066588;28;20017;-74
2024/01/14 01:25:57;;;;;;;17.02;5.90;;;6.10;99.90;;;;;;5066446;28;20036;-74
2024/01/14 01:28:23;;;;;;;14.55;6.28;;;6.10;99.90;;;;;;5069153;28;20017;-75
2024/01/14 01:30:48;;;;;;;14.95;6.15;;;6.00;99.90;;;;;;5058711;28;20058;-74
2024/01/14 01:33:14;;;;;;;21.33;6.38;;;6.00;99.90;;;;;;5055306;28;20690;-74
2024/01/14 01:35:40;;;;;;;16.83;6.22;;;6.00;99.90;;;;;;5059026;28;20025;-75
2024/01/14 01:38:05;;;;;;;18.85;6.25;;;6.00;99.90;;;;;;5059081;28;20023;-74
2024/01/14 01:40:31;;;;;;;15.63;6.05;;;6.00;99.90;;;;;;5061877;28;20468;-74
2024/01/14 01:42:57;;;;;;;14.60;6.78;;;5.90;99.90;;;;;;5061263;28;20035;-75
2024/01/14 01:45:22;;;;;;;13.77;6.30;;;5.90;99.90;;;;;;5059537;28;20021;-75
2024/01/14 01:47:48;;;;;;;16.40;6.80;;;5.90;99.90;;;;;;5055535;28;20029;-75
2024/01/14 01:50:14;;;;;;;16.90;6.65;;;5.90;99.90;;;;;;5053690;28;20025;-75
2024/01/14 01:52:40;;;;;;;14.80;6.03;;;5.90;99.90;;;;;;5053243;28;20029;-75
2024/01/14 01:55:07;;;;;;;13.52;6.00;;;5.80;99.90;;;;;;5068547;28;20025;-75
2024/01/14 01:57:33;;;;;;;19.25;6.25;;;5.80;99.90;;;;;;5052764;28;20061;-75
2024/01/14 02:00:00;;;;;;;15.48;6.47;;;5.80;99.90;;;;;;5053438;28;20514;-75
2024/01/14 02:02:26;;;;;;;11.48;6.93;;;5.70;99.90;;;;;;5061782;28;20029;-75
2024/01/14 02:04:52;;;;;;;19.15;6.40;;;5.70;99.90;;;;;;5055826;28;20460;-74
2024/01/14 02:07:19;;;;;;;19.60;6.43;;;5.70;99.90;;;;;;5053888;28;20029;-74
2024/01/14 02:09:45;;;;;;;14.73;6.47;;;5.60;99.90;;;;;;5064231;28;20554;-74
2024/01/14 02:12:11;;;;;;;13.95;6.53;;;5.60;99.90;;;;;;5051848;28;20021;-74
2024/01/14 02:14:36;;;;;;;25.65;8.10;;;5.60;99.90;;;;;;5056178;28;20049;-74
2024/01/14 02:17:02;;;;;;;20.42;8.57;;;5.60;99.90;;;;;;5068522;28;20048;-75
2024/01/14 02:19:27;;;;;;;16.92;8.93;;;5.50;99.90;;;;;;5052790;28;20103;-74
2024/01/14 02:22:10;;;;;;;19.00;8.10;;;5.50;99.90;;;;;;5053835;28;20021;-75
2024/01/14 02:24:37;;;;;;;24.73;8.98;;;5.60;99.90;;;;;;5053495;28;20096;-74
2024/01/14 02:27:03;;;;;;;19.05;7.65;;;5.50;99.90;;;;;;5062794;28;20028;-75
2024/01/14 02:29:29;;;;;;;14.88;7.25;;;5.50;99.90;;;;;;5052042;28;20086;-75
2024/01/14 02:31:55;;;;;;;20.33;7.07;;;5.60;99.90;;;;;;5064481;28;20024;-75
2024/01/14 02:34:21;;;;;;;16.40;7.30;;;5.60;99.90;;;;;;5061390;28;20146;-74
2024/01/14 02:36:46;;;;;;;12.27;6.78;;;5.60;99.90;;;;;;5061358;28;20475;-75
2024/01/14 02:39:12;;;;;;;15.15;6.70;;;5.60;99.90;;;;;;5064917;28;20021;-74
2024/01/14 02:41:38;;;;;;;19.75;7.47;;;5.60;99.90;;;;;;5065102;28;20507;-75
2024/01/14 02:44:03;;;;;;;19.02;7.15;;;5.60;99.90;;;;;;5065096;28;20079;-75
2024/01/14 02:46:29;;;;;;;17.10;7.07;;;5.70;99.90;;;;;;5061379;28;20025;-74
2024/01/14 02:48:57;;;;;;;17.08;7.85;;;5.70;99.90;;;;;;5051210;28;20063;-74
2024/01/14 02:51:22;;;;;;;31.95;14.57;;;5.70;99.90;;;;;;5062992;28;20025;-75
2024/01/14 02:53:48;;;;;;;37.08;15.75;;;5.60;99.90;;;;;;5051541;28;20496;-75
2024/01/14 02:56:14;;;;;;;40.03;16.73;;;5.50;99.90;;;;;;5062486;28;20471;-75
2024/01/14 02:58:39;;;;;;;47.25;19.10;;;5.40;99.90;;;;;;5063628;28;20021;-74
2024/01/14 03:01:05;;;;;;;44.53;19.83;;;5.30;99.90;;;;;;5062703;28;20387;-74
2024/01/14 03:03:31;;;;;;;54.33;23.00;;;5.30;99.90;;;;;;5054903;28;20128;-74
2024/01/14 03:05:57;;;;;;;58.55;24.27;;;5.10;99.90;;;;;;5061481;28;20412;-74
2024/01/14 03:08:23;;;;;;;59.28;24.88;;;5.10;99.90;;;;;;5050952;28;20071;-74
2024/01/14 03:10:49;;;;;;;62.30;25.70;;;5.10;99.90;;;;;;5060805;28;20044;-74
2024/01/14 03:13:15;;;;;;;56.47;24.73;;;5.00;99.90;;;;;;5051094;28;20028;-74
2024/01/14 03:15:44;;;;;;;61.25;25.63;;;5.00;99.90;;;;;;5055218;28;20442;-74
2024/01/14 03:18:12;;;;;;;59.30;24.92;;;5.00;99.90;;;;;;5063909;28;20039;-74
2024/01/14 03:20:37;;;;;;;56.58;24.42;;;5.00;99.90;;;;;;5059806;28;20017;-74
2024/01/14 03:23:03;;;;;;;63.92;25.77;;;4.90;99.90;;;;;;5055293;28;20024;-74
2024/01/14 03:25:29;;;;;;;65.30;25.77;;;4.90;99.90;;;;;;5057557;28;20024;-74
2024/01/14 03:27:55;;;;;;;59.10;26.08;;;4.90;99.90;;;;;;5056595;28;20032;-74
2024/01/14 03:30:20;;;;;;;68.18;27.70;;;4.80;99.90;;;;;;5064770;28;20041;-74
2024/01/14 03:32:46;;;;;;;69.07;28.00;;;4.80;99.90;;;;;;5058492;28;20020;-74
2024/01/14 03:35:11;;;;;;;73.88;30.27;;;4.70;99.90;;;;;;5057618;28;20430;-74
2024/01/14 03:37:37;;;;;;;73.78;30.17;;;4.70;99.90;;;;;;5063441;28;20032;-74
2024/01/14 03:40:03;;;;;;;75.55;31.30;;;4.60;99.90;;;;;;5063768;28;20502;-75
2024/01/14 03:42:29;;;;;;;79.30;31.55;;;4.60;99.90;;;;;;5058196;28;20032;-74
2024/01/14 03:44:55;;;;;;;78.75;30.70;;;4.50;99.90;;;;;;5065793;28;20028;-75
2024/01/14 03:47:21;;;;;;;74.32;30.35;;;4.50;99.90;;;;;;5060828;28;20063;-75
2024/01/14 03:49:46;;;;;;;73.05;30.13;;;4.50;99.90;;;;;;5059040;28;20041;-75
2024/01/14 03:52:12;;;;;;;66.82;28.88;;;4.50;99.90;;;;;;5063090;28;20027;-75
2024/01/14 03:54:37;;;;;;;72.22;29.90;;;4.40;99.90;;;;;;5056025;28;20044;-74
2024/01/14 03:57:03;;;;;;;72.57;30.80;;;4.40;99.90;;;;;;5060492;28;20028;-75
2024/01/14 03:59:28;;;;;;;71.90;29.88;;;4.40;99.90;;;;;;5064579;28;20060;-75
2024/01/14 04:01:54;;;;;;;66.10;28.90;;;4.40;99.90;;;;;;5064449;28;20033;-75
2024/01/14 04:04:19;;;;;;;71.50;29.50;;;4.30;99.90;;;;;;5059887;28;20096;-74
2024/01/14 04:06:45;;;;;;;71.30;28.70;;;4.30;99.90;;;;;;5049585;28;20506;-74
2024/01/14 04:09:11;;;;;;;67.10;28.20;;;4.30;99.90;;;;;;5066633;28;20024;-74
2024/01/14 04:11:38;;;;;;;68.78;27.08;;;4.30;99.90;;;;;;5055980;28;20275;-74
2024/01/14 04:14:03;;;;;;;64.00;26.95;;;4.30;99.90;;;;;;5050447;28;20025;-74
2024/01/14 04:16:40;;;;;;;62.50;26.88;;;4.30;99.90;;;;;;5069448;28;20048;-74
2024/01/14 04:19:07;;;;;;;63.53;27.48;;;4.30;99.90;;;;;;5058039;28;20102;-74
2024/01/14 04:21:33;;;;;;;68.60;27.25;;;4.30;99.90;;;;;;5050547;28;20033;-74
2024/01/14 04:23:59;;;;;;;65.05;27.02;;;4.30;99.90;;;;;;5050443;28;20040;-74
2024/01/14 04:26:25;;;;;;;71.18;29.13;;;4.30;99.90;;;;;;5062756;28;20029;-74
2024/01/14 04:28:52;;;;;;;66.63;28.30;;;4.30;99.90;;;;;;5062320;28;20028;-74
2024/01/14 04:31:18;;;;;;;67.38;28.20;;;4.30;99.90;;;;;;5050615;28;20028;-74
2024/01/14 04:33:45;;;;;;;62.83;28.35;;;4.30;99.90;;;;;;5059340;28;20051;-74
2024/01/14 04:36:10;;;;;;;63.90;28.15;;;4.30;99.90;;;;;;5055009;28;20025;-74
2024/01/14 04:38:36;;;;;;;67.57;29.50;;;4.20;99.90;;;;;;5058855;28;20036;-74
2024/01/14 04:41:02;;;;;;;73.97;30.15;;;4.20;99.90;;;;;;5057807;28;20021;-74
2024/01/14 04:43:28;;;;;;;70.57;29.77;;;4.20;99.90;;;;;;5049610;28;20100;-74
2024/01/14 04:45:54;;;;;;;70.63;29.35;;;4.20;99.90;;;;;;5050826;28;20154;-74
2024/01/14 04:48:19;;;;;;;65.07;28.23;;;4.10;99.90;;;;;;5069101;28;20027;-73
2024/01/14 04:50:45;;;;;;;66.05;28.17;;;4.20;99.90;;;;;;5057273;28;20021;-74
2024/01/14 04:53:14;;;;;;;72.10;28.60;;;4.20;99.90;;;;;;5062440;28;20024;-74
2024/01/14 04:55:39;;;;;;;66.55;28.73;;;4.20;99.90;;;;;;5066728;28;20024;-74
2024/01/14 04:58:05;;;;;;;70.97;29.40;;;4.20;99.90;;;;;;5051376;28;20439;-74
2024/01/14 05:00:31;;;;;;;79.80;31.13;;;4.20;99.90;;;;;;5055578;28;20029;-74
2024/01/14 05:02:56;;;;;;;73.45;30.05;;;4.20;99.90;;;;;;5063838;28;20025;-74
2024/01/14 05:05:22;;;;;;;75.80;30.38;;;4.20;99.90;;;;;;5066414;28;20020;-74
2024/01/14 05:07:48;;;;;;;68.50;30.20;;;4.20;99.90;;;;;;5054354;28;20464;-74
2024/01/14 05:10:13;;;;;;;76.25;32.05;;;4.20;99.90;;;;;;5062035;28;20025;-73
2024/01/14 05:12:39;;;;;;;77.05;30.65;;;4.20;99.90;;;;;;5061323;28;20025;-74
2024/01/14 05:15:05;;;;;;;80.80;32.30;;;4.20;99.90;;;;;;5054632;28;20086;-74
2024/01/14 05:17:31;;;;;;;88.25;32.25;;;4.20;99.90;;;;;;5052727;28;20128;-74
2024/01/14 05:19:56;;;;;;;78.57;32.20;;;4.20;99.90;;;;;;5051440;28;20040;-74
2024/01/14 05:22:22;;;;;;;80.90;33.03;;;4.30;99.90;;;;;;5054833;28;20075;-74
2024/01/14 05:24:50;;;;;;;80.35;32.78;;;4.20;99.90;;;;;;5054008;28;20055;-74
2024/01/14 05:27:16;;;;;;;86.95;33.65;;;4.30;99.90;;;;;;5057945;28;20025;-74
2024/01/14 05:29:42;;;;;;;85.07;33.13;;;4.30;99.90;;;;;;5065551;28;20035;-74
2024/01/14 05:32:15;;;;;;;92.57;34.83;;;4.30;99.90;;;;;;5054685;28;20055;-73
2024/01/14 05:34:41;;;;;;;84.22;33.15;;;4.30;99.90;;;;;;5056468;28;20021;-73
2024/01/14 05:37:07;;;;;;;83.97;34.22;;;4.30;99.90;;;;;;5058604;28;20115;-74
2024/01/14 05:39:33;;;;;;;89.43;34.55;;;4.30;99.90;;;;;;5064963;28;20021;-73
2024/01/14 05:41:59;;;;;;;88.70;33.20;;;4.30;99.90;;;;;;5054969;28;20021;-74
2024/01/14 05:44:25;;;;;;;90.90;33.60;;;4.30;99.90;;;;;;5054991;28;20016;-74
2024/01/14 05:46:51;;;;;;;84.13;34.00;;;4.30;99.90;;;;;;5072196;28;20016;-73
2024/01/14 05:49:18;;;;;;;85.47;33.13;;;4.30;99.90;;;;;;5062098;28;20827;-74
2024/01/14 05:51:44;;;;;;;84.07;33.53;;;4.30;99.90;;;;;;5063459;28;20021;-74
2024/01/14 05:54:10;;;;;;;87.72;32.83;;;4.30;99.90;;;;;;5069300;28;20101;-74
2024/01/14 05:56:35;;;;;;;80.40;31.52;;;4.30;99.90;;;;;;5065733;28;20043;-74
2024/01/14 05:59:01;;;;;;;83.35;32.25;;;4.30;99.90;;;;;;5062979;28;20021;-74
2024/01/14 06:01:29;;;;;;;86.10;33.63;;;4.30;99.90;;;;;;5059108;28;20021;-74
2024/01/14 06:03:56;;;;;;;83.90;32.65;;;4.30;99.90;;;;;;5056117;28;20361;-74
2024/01/14 06:06:22;;;;;;;85.07;32.95;;;4.40;99.90;;;;;;5062386;28;20063;-74
2024/01/14 06:08:47;;;;;;;82.70;33.13;;;4.30;99.90;;;;;;5058381;28;20066;-74
2024/01/14 06:11:13;;;;;;;85.22;32.88;;;4.40;99.90;;;;;;5057300;28;20143;-75
2024/01/14 06:13:40;;;;;;;85.13;33.50;;;4.40;99.90;;;;;;5051241;28;20021;-74
2024/01/14 06:16:06;;;;;;;86.03;33.08;;;4.40;99.90;;;;;;5052370;28;20049;-74
2024/01/14 06:18:31;;;;;;;92.90;34.03;;;4.40;99.90;;;;;;5055293;28;20104;-74
2024/01/14 06:20:59;;;;;;;85.00;32.72;;;4.40;99.90;;;;;;5058197;28;20455;-74
2024/01/14 06:23:25;;;;;;;85.40;33.33;;;4.30;99.90;;;;;;5054319;28;20461;-74
2024/01/14 06:25:51;;;;;;;85.53;31.90;;;4.40;99.90;;;;;;5057812;28;20098;-74
2024/01/14 06:28:17;;;;;;;82.07;32.40;;;4.40;99.90;;;;;;5063689;28;20051;-74
2024/01/14 06:30:43;;;;;;;90.05;32.10;;;4.40;99.90;;;;;;5051658;28;20456;-74
2024/01/14 06:33:09;;;;;;;79.45;31.33;;;4.40;99.90;;;;;;5068477;28;20107;-74
2024/01/14 06:35:35;;;;;;;84.93;30.08;;;4.40;99.90;;;;;;5056340;28;20103;-74
2024/01/14 06:38:00;;;;;;;79.95;29.90;;;4.40;99.90;;;;;;5060102;28;20119;-74
2024/01/14 06:40:26;;;;;;;78.13;30.08;;;4.40;99.90;;;;;;5064049;28;20091;-74
2024/01/14 06:42:52;;;;;;;82.30;31.88;;;4.40;99.90;;;;;;5051310;28;20021;-74
2024/01/14 06:45:18;;;;;;;76.82;30.60;;;4.40;99.90;;;;;;5060088;28;20225;-74
2024/01/14 06:47:43;;;;;;;86.35;33.58;;;4.40;99.90;;;;;;5069064;28;20024;-74
2024/01/14 06:50:10;;;;;;;82.85;32.55;;;4.40;99.90;;;;;;5061975;28;20036;-74
2024/01/14 06:52:37;;;;;;;89.22;32.97;;;4.40;99.90;;;;;;5053661;28;20013;-74
2024/01/14 06:55:04;;;;;;;92.25;33.60;;;4.40;99.90;;;;;;5051306;28;20468;-75
2024/01/14 06:57:31;;;;;;;86.20;32.22;;;4.40;99.90;;;;;;5062103;28;20119;-75
2024/01/14 06:59:57;;;;;;;79.55;31.65;;;4.40;99.90;;;;;;5053917;28;20062;-74
2024/01/14 07:02:23;;;;;;;84.72;32.38;;;4.30;99.90;;;;;;5070952;28;20020;-74
2024/01/14 07:04:48;;;;;;;85.30;32.13;;;4.30;99.90;;;;;;5063841;28;20036;-74
2024/01/14 07:07:14;;;;;;;78.28;32.00;;;4.30;99.90;;;;;;5061612;28;20041;-74
2024/01/14 07:09:39;;;;;;;85.88;31.27;;;4.40;99.90;;;;;;5050616;28;20035;-74
2024/01/14 07:12:06;;;;;;;81.68;31.92;;;4.30;99.90;;;;;;5068234;28;20027;-74
2024/01/14 07:14:31;;;;;;;83.78;31.90;;;4.30;99.90;;;;;;5063948;28;20028;-74
2024/01/14 07:16:57;;;;;;;81.35;31.52;;;4.30;99.90;;;;;;5062994;28;20056;-74
2024/01/14 07:19:22;;;;;;;83.38;31.95;;;4.30;99.90;;;;;;5052854;28;20016;-74
2024/01/14 07:21:48;;;;;;;80.70;29.98;;;4.30;99.90;;;;;;5055837;28;20431;-74
2024/01/14 07:24:14;;;;;;;87.07;30.48;;;4.30;99.90;;;;;;5060110;28;20529;-74
2024/01/14 07:26:40;;;;;;;77.40;30.10;;;4.30;99.90;;;;;;5054012;28;20017;-74
2024/01/14 07:29:05;;;;;;;74.07;29.88;;;4.30;99.90;;;;;;5058172;28;20021;-74
2024/01/14 07:31:31;;;;;;;78.97;29.85;;;4.30;99.90;;;;;;5052378;28;20020;-74
2024/01/14 07:33:57;;;;;;;71.65;28.80;;;4.30;99.90;;;;;;5058142;28;20425;-74
2024/01/14 07:36:23;;;;;;;79.05;30.60;;;4.30;99.90;;;;;;5061243;28;20467;-74
2024/01/14 07:38:52;;;;;;;88.00;32.10;;;4.30;99.90;;;;;;5053756;28;20040;-75
2024/01/14 07:41:18;;;;;;;86.18;33.78;;;4.30;99.90;;;;;;5053109;28;20603;-74
2024/01/14 07:43:44;;;;;;;86.53;32.67;;;4.30;99.90;;;;;;5054097;28;20032;-74
2024/01/14 07:46:10;;;;;;;87.78;33.42;;;4.30;99.90;;;;;;5055087;28;20324;-74
2024/01/14 07:48:36;;;;;;;86.47;32.40;;;4.30;99.90;;;;;;5063663;28;20090;-74
2024/01/14 07:51:02;;;;;;;88.45;33.38;;;4.20;99.90;;;;;;5054933;28;20021;-74
2024/01/14 07:53:28;;;;;;;91.70;33.80;;;4.20;99.90;;;;;;5049939;28;20033;-74
2024/01/14 07:55:54;;;;;;;83.97;32.33;;;4.20;99.90;;;;;;5057710;28;20388;-74
2024/01/14 07:58:20;;;;;;;85.97;32.72;;;4.20;99.90;;;;;;5054953;28;20021;-74
2024/01/14 08:00:45;;;;;;;83.80;32.58;;;4.20;99.90;;;;;;5060436;28;20021;-74
2024/01/14 08:03:11;;;;;;;93.15;34.33;;;4.20;99.90;;;;;;5052014;28;20020;-74
2024/01/14 08:05:40;;;;;;;88.57;33.83;;;4.20;99.90;;;;;;5050902;28;20017;-74
2024/01/14 08:08:06;;;;;;;86.57;32.53;;;4.20;99.90;;;;;;5053228;28;20059;-74
2024/01/14 08:10:35;;;;;;;90.15;33.97;;;4.10;99.90;;;;;;5050845;28;20464;-74
2024/01/14 08:13:01;;;;;;;90.15;34.03;;;4.10;99.90;;;;;;5058322;28;20074;-74
2024/01/14 08:15:27;;;;;;;99.75;37.05;;;4.10;99.90;;;;;;5054650;28;20071;-74
2024/01/14 08:17:53;;;;;;;85.85;34.20;;;4.10;99.90;;;;;;5068411;28;20089;-74
2024/01/14 08:20:19;;;;;;;94.63;35.00;;;4.10;99.90;;;;;;5072732;28;20028;-74
2024/01/14 08:22:44;;;;;;;94.55;35.55;;;4.10;99.90;;;;;;5074951;28;20645;-74
2024/01/14 08:25:13;;;;;;;95.25;35.53;;;4.10;99.90;;;;;;5074520;28;20019;-74
2024/01/14 08:27:39;;;;;;;97.45;37.40;;;4.10;99.90;;;;;;5069542;28;20032;-74
2024/01/14 08:30:05;;;;;;;96.47;35.83;;;4.10;99.90;;;;;;5070922;28;20025;-74
2024/01/14 08:32:31;;;;;;;102.93;36.95;;;4.10;99.90;;;;;;5066390;28;20028;-74
2024/01/14 08:34:57;;;;;;;107.75;37.88;;;4.10;99.90;;;;;;5071748;28;20061;-73
2024/01/14 08:37:23;;;;;;;95.03;36.70;;;4.10;99.90;;;;;;5069243;28;20056;-73
2024/01/14 08:39:50;;;;;;;103.05;36.67;;;4.10;99.90;;;;;;5066304;28;20025;-73
2024/01/14 08:42:19;;;;;;;103.95;37.92;;;4.10;99.90;;;;;;5077229;28;20028;-73
2024/01/14 08:44:44;;;;;;;95.22;36.15;;;4.20;99.90;;;;;;5051385;28;20044;-73
2024/01/14 08:47:10;;;;;;;96.57;35.17;;;4.20;99.90;;;;;;5063954;28;20029;-73
2024/01/14 08:49:35;;;;;;;91.93;34.85;;;4.20;99.90;;;;;;5050759;28;20024;-74
2024/01/14 08:52:01;;;;;;;85.15;33.75;;;4.30;99.90;;;;;;5055473;28;20036;-73
2024/01/14 08:54:31;;;;;;;95.43;33.88;;;4.30;99.90;;;;;;5066574;28;20146;-73
2024/01/14 08:56:56;;;;;;;86.22;33.28;;;4.30;99.90;;;;;;5069992;28;20399;-73
2024/01/14 08:59:22;;;;;;;87.63;33.28;;;4.40;99.90;;;;;;5059414;28;20024;-73
2024/01/14 09:01:47;;;;;;;83.88;31.20;;;4.40;99.90;;;;;;5054600;28;20033;-73
2024/01/14 09:04:13;;;;;;;77.78;31.48;;;4.40;99.90;;;;;;5054664;28;20021;-73
2024/01/14 09:06:39;;;;;;;82.50;31.35;;;4.40;99.90;;;;;;5051204;28;20028;-73
2024/01/14 09:09:06;;;;;;;81.88;33.03;;;4.50;99.90;;;;;;5052588;28;20167;-73
2024/01/14 09:11:32;;;;;;;86.28;31.70;;;4.50;99.90;;;;;;5055924;28;20480;-73
2024/01/14 09:13:58;;;;;;;86.47;33.58;;;4.50;99.90;;;;;;5068480;28;20052;-73
2024/01/14 09:16:24;;;;;;;88.20;32.13;;;4.50;99.90;;;;;;5071399;28;20080;-73
2024/01/14 09:18:49;;;;;;;87.65;33.50;;;4.60;99.90;;;;;;5066463;28;20111;-73
2024/01/14 09:21:15;;;;;;;84.35;32.55;;;4.60;99.90;;;;;;5055795;28;20032;-73
2024/01/14 09:23:40;;;;;;;82.75;31.80;;;4.60;99.90;;;;;;5056632;28;20059;-73
2024/01/14 09:26:06;;;;;;;84.60;33.03;;;4.60;99.90;;;;;;5063597;28;20074;-73
2024/01/14 09:28:32;;;;;;;76.15;30.77;;;4.60;99.90;;;;;;5061743;28;20103;-73
2024/01/14 09:30:58;;;;;;;80.88;32.88;;;4.60;99.90;;;;;;5068694;28;20532;-73
2024/01/14 09:33:24;;;;;;;83.85;32.58;;;4.60;99.90;;;;;;5052982;28;20120;-73
2024/01/14 09:35:49;;;;;;;82.20;31.33;;;4.60;99.90;;;;;;5069633;28;20491;-73
2024/01/14 09:38:15;;;;;;;78.32;30.42;;;4.60;99.90;;;;;;5070842;28;20052;-73
2024/01/14 09:40:41;;;;;;;82.68;33.05;;;4.60;99.90;;;;;;5063115;28;20024;-73
2024/01/14 09:43:13;;;;;;;77.00;31.08;;;4.60;99.90;;;;;;5056730;28;20399;-72
2024/01/14 09:45:40;;;;;;;82.57;32.90;;;4.60;99.90;;;;;;5061122;28;20032;-73
2024/01/14 09:48:08;;;;;;;79.07;32.45;;;4.60;99.90;;;;;;5070818;28;20032;-73
2024/01/14 09:50:35;;;;;;;89.07;32.47;;;4.60;99.90;;;;;;5058518;28;20035;-73
2024/01/14 09:53:01;;;;;;;82.85;32.03;;;4.60;99.90;;;;;;5054907;28;20052;-73
2024/01/14 09:55:27;;;;;;;81.95;32.20;;;4.60;99.90;;;;;;5059382;28;20532;-73
2024/01/14 09:57:53;;;;;;;80.72;31.13;;;4.60;99.90;;;;;;5056876;28;20068;-73
2024/01/14 10:00:23;;;;;;;85.13;31.77;;;4.60;99.90;;;;;;5055231;28;20053;-73
2024/01/14 10:02:49;;;;;;;81.78;32.63;;;4.50;99.90;;;;;;5066383;28;20029;-73
2024/01/14 10:05:15;;;;;;;77.68;31.08;;;4.50;99.90;;;;;;5062027;28;20426;-73
2024/01/14 10:07:43;;;;;;;83.13;32.70;;;4.60;99.90;;;;;;5064159;28;20081;-73
2024/01/14 10:10:09;;;;;;;84.75;33.00;;;4.50;99.90;;;;;;5065311;28;20212;-73
2024/01/14 10:12:36;;;;;;;85.57;31.95;;;4.50;99.90;;;;;;5053777;28;20515;-73
2024/01/14 10:15:01;;;;;;;84.78;32.95;;;4.50;99.90;;;;;;5057114;28;20051;-73
2024/01/14 10:17:27;;;;;;;91.40;34.22;;;4.50;99.90;;;;;;5052005;28;20045;-73
2024/01/14 10:19:54;;;;;;;86.13;32.72;;;4.50;99.90;;;;;;5055733;28;20013;-73
2024/01/14 10:22:21;;;;;;;88.63;33.55;;;4.50;99.90;;;;;;5065951;28;20027;-73
2024/01/14 10:24:51;;;;;;;85.28;33.42;;;4.50;99.90;;;;;;5060707;28;20055;-73
2024/01/14 10:27:17;;;;;;;89.95;34.78;;;4.50;99.90;;;;;;5057436;28;20095;-73
2024/01/14 10:29:42;;;;;;;90.57;34.88;;;4.50;99.90;;;;;;5059879;28;20021;-73
2024/01/14 10:32:08;;;;;;;84.97;33.78;;;4.50;99.90;;;;;;5067976;28;20640;-73
2024/01/14 10:34:34;;;;;;;86.88;33.03;;;4.50;99.90;;;;;;5060768;28;20024;-73
2024/01/14 10:37:01;;;;;;;95.60;34.92;;;4.50;99.90;;;;;;5070861;28;20367;-73
2024/01/14 10:39:33;;;;;;;97.03;34.75;;;4.50;99.90;;;;;;5059319;28;20074;-73
2024/01/14 10:42:00;;;;;;;92.80;33.50;;;4.50;99.90;;;;;;5060563;28;20025;-73
2024/01/14 10:44:25;;;;;;;90.93;34.45;;;4.50;99.90;;;;;;5056865;28;20025;-73
2024/01/14 10:46:53;;;;;;;92.53;34.67;;;4.50;99.90;;;;;;5069421;28;20085;-73
2024/01/14 10:49:24;;;;;;;84.40;32.33;;;4.50;99.90;;;;;;5056390;28;20025;-73
2024/01/14 10:51:59;;;;;;;82.78;31.55;;;4.50;99.90;;;;;;5055556;28;20025;-73
2024/01/14 10:54:31;;;;;;;77.13;30.38;;;4.50;99.90;;;;;;5051894;28;20041;-73
2024/01/14 10:57:08;;;;;;;79.68;29.83;;;4.50;99.90;;;;;;5058727;28;20088;-73
2024/01/14 10:59:36;;;;;;;77.07;28.90;;;4.50;99.90;;;;;;5060692;28;20032;-73
2024/01/14 11:02:14;;;;;;;73.80;28.58;;;4.50;99.90;;;;;;5056428;28;20048;-73
2024/01/14 11:04:39;;;;;;;73.25;28.67;;;4.50;99.90;;;;;;5052192;28;20109;-73
2024/01/14 11:07:05;;;;;;;77.07;28.77;;;4.50;99.90;;;;;;5053119;28;20070;-73
2024/01/14 11:09:31;;;;;;;77.90;28.55;;;4.60;99.90;;;;;;5053279;28;20025;-73
2024/01/14 11:12:22;;;;;;;71.78;28.38;;;4.60;99.90;;;;;;5063774;28;20017;-73
2024/01/14 11:14:59;;;;;;;74.53;28.42;;;4.60;99.90;;;;;;5070474;28;20013;-73
2024/01/14 11:17:38;;;;;;;66.82;27.75;;;4.60;99.90;;;;;;5051784;28;20492;-74
2024/01/14 11:20:05;;;;;;;68.50;27.75;;;4.60;99.90;;;;;;5059435;28;20180;-73
2024/01/14 11:22:31;;;;;;;71.82;28.27;;;4.60;99.90;;;;;;5055826;28;20028;-73
2024/01/14 11:24:58;;;;;;;73.22;26.83;;;4.60;99.90;;;;;;5051866;28;20531;-73
2024/01/14 11:27:23;;;;;;;75.38;28.73;;;4.60;99.90;;;;;;5056991;28;20028;-73
2024/01/14 11:29:49;;;;;;;64.25;26.33;;;4.60;99.90;;;;;;5061740;28;20029;-73
2024/01/14 11:32:20;;;;;;;68.97;28.08;;;4.60;99.90;;;;;;5054185;28;20025;-73
2024/01/14 11:34:50;;;;;;;71.63;28.27;;;4.60;99.90;;;;;;5056410;28;20028;-73
2024/01/14 11:37:45;;;;;;;64.47;27.02;;;4.70;99.90;;;;;;5057522;28;20036;-73
2024/01/14 11:40:23;;;;;;;66.97;27.08;;;4.70;99.90;;;;;;5057958;28;20057;-73
2024/01/14 11:42:56;;;;;;;69.50;28.60;;;4.70;99.90;;;;;;5063291;28;20417;-73
2024/01/14 11:45:24;;;;;;;85.15;33.83;;;4.70;99.90;;;;;;5066391;28;20020;-72
2024/01/14 11:48:03;;;;;;;83.40;33.03;;;4.70;99.90;;;;;;5066288;28;20115;-73
2024/01/14 11:50:29;;;;;;;80.28;33.40;;;4.70;99.90;;;;;;5061446;28;20017;-73
2024/01/14 11:52:57;;;;;;;76.35;32.83;;;4.70;99.90;;;;;;5063222;28;20024;-73
2024/01/14 11:55:33;;;;;;;83.45;34.17;;;4.70;99.90;;;;;;5057243;28;20031;-72
2024/01/14 11:58:09;;;;;;;76.00;31.85;;;4.60;99.90;;;;;;5060165;28;20078;-73
2024/01/14 12:00:37;;;;;;;81.00;33.00;;;4.60;99.90;;;;;;5064720;28;20036;-73
2024/01/14 12:03:21;;;;;;;77.75;31.75;;;4.60;99.90;;;;;;5051357;28;20029;-73
2024/01/14 12:05:48;;;;;;;70.05;30.90;;;4.60;99.90;;;;;;5052134;28;20066;-73
2024/01/14 12:08:17;;;;;;;67.88;29.10;;;4.60;99.90;;;;;;5051528;28;20021;-73
2024/01/14 12:10:42;;;;;;;68.28;29.08;;;4.60;99.90;;;;;;5056681;28;20013;-73
2024/01/14 12:13:08;;;;;;;65.45;29.20;;;4.70;99.90;;;;;;5051734;28;20098;-73
2024/01/14 12:15:34;;;;;;;66.78;27.05;;;4.60;99.90;;;;;;5057512;28;20734;-73
2024/01/14 12:18:01;;;;;;;65.65;27.38;;;4.60;99.90;;;;;;5059851;28;20049;-73
2024/01/14 12:20:27;;;;;;;59.45;25.90;;;4.70;99.90;;;;;;5060483;28;20025;-73
2024/01/14 12:23:02;;;;;;;63.83;26.15;;;4.70;99.90;;;;;;5053776;28;20025;-73
2024/01/14 12:25:28;;;;;;;56.78;25.02;;;4.70;99.90;;;;;;5050353;28;20017;-73
2024/01/14 12:27:54;;;;;;;59.00;23.70;;;4.70;99.90;;;;;;5049154;28;20503;-72
2024/01/14 12:30:36;;;;;;;54.38;24.13;;;4.80;99.90;;;;;;5050278;28;20024;-72
2024/01/14 12:33:12;;;;;;;50.85;21.65;;;4.80;99.90;;;;;;5053579;28;20158;-73
2024/01/14 12:35:38;;;;;;;49.63;21.30;;;4.90;99.90;;;;;;5054113;28;20100;-73